sensor_id;sensor_type;location;lat;lon;timestamp;pressure;altitude;pressure_sealevel;temperature;humidity
10658;BME280;5377;43.276;26.930;2023-05-24T00:02:06;98843.03;;;15.14;100.00
10658;BME280;5377;43.276;26.930;2023-05-24T00:04:33;98836.09;;;15.18;100.00
10658;BME280;5377;43.276;26.930;2023-05-24T00:07:00;98836.31;;;15.16;100.00
10658;BME280;5377;43.276;26.930;2023-05-24T00:09:28;98833.03;;;15.14;100.00
10658;BME280;5377;43.276;26.930;2023-05-24T00:11:55;98838.59;;;15.08;100.00
10658;BME280;5377;43.276;26.930;2023-05-24T00:14:21;98833.34;;;15.01;100.00
10658;BME280;5377;43.276;26.930;2023-05-24T00:16:50;98829.72;;;14.95;100.00
10658;BME280;5377;43.276;26.930;2023-05-24T00:19:16;98839.78;;;14.88;100.00
10658;BME280;5377;43.276;26.930;2023-05-24T00:21:47;98834.06;;;14.85;100.00
10658;BME280;5377;43.276;26.930;2023-05-24T00:24:14;98830.19;;;14.92;100.00
10658;BME280;5377;43.276;26.930;2023-05-24T00:26:42;98839.94;;;14.82;100.00
10658;BME280;5377;43.276;26.930;2023-05-24T00:29:09;98834.41;;;14.88;100.00
10658;BME280;5377;43.276;26.930;2023-05-24T00:31:35;98835.22;;;14.89;100.00
10658;BME280;5377;43.276;26.930;2023-05-24T00:34:03;98839.31;;;14.91;100.00
10658;BME280;5377;43.276;26.930;2023-05-24T00:36:30;98795.19;;;14.69;100.00
10658;BME280;5377;43.276;26.930;2023-05-24T00:38:57;98843.06;;;15.02;100.00
10658;BME280;5377;43.276;26.930;2023-05-24T00:41:24;98840.16;;;14.92;100.00
10658;BME280;5377;43.276;26.930;2023-05-24T00:43:51;98839.31;;;14.91;100.00
10658;BME280;5377;43.276;26.930;2023-05-24T00:46:20;98831.34;;;14.85;100.00
10658;BME280;5377;43.276;26.930;2023-05-24T00:48:48;98826.78;;;14.85;100.00
10658;BME280;5377;43.276;26.930;2023-05-24T00:51:16;98834.88;;;14.85;100.00
10658;BME280;5377;43.276;26.930;2023-05-24T00:53:45;98831.00;;;14.81;100.00
10658;BME280;5377;43.276;26.930;2023-05-24T00:56:13;98839.00;;;14.76;100.00
10658;BME280;5377;43.276;26.930;2023-05-24T00:58:40;98842.84;;;14.80;100.00
10658;BME280;5377;43.276;26.930;2023-05-24T01:01:07;98825.97;;;14.85;100.00
10658;BME280;5377;43.276;26.930;2023-05-24T01:03:34;98828.66;;;14.85;100.00
10658;BME280;5377;43.276;26.930;2023-05-24T01:06:02;98828.09;;;14.83;100.00
10658;BME280;5377;43.276;26.930;2023-05-24T01:08:45;98818.59;;;14.80;100.00
10658;BME280;5377;43.276;26.930;2023-05-24T01:11:19;98823.59;;;14.88;100.00
10658;BME280;5377;43.276;26.930;2023-05-24T01:13:58;98820.44;;;14.91;100.00
10658;BME280;5377;43.276;26.930;2023-05-24T01:16:33;98819.97;;;14.94;100.00
10658;BME280;5377;43.276;26.930;2023-05-24T01:19:13;98771.25;;;14.73;100.00
10658;BME280;5377;43.276;26.930;2023-05-24T01:21:56;98816.47;;;14.94;100.00
10658;BME280;5377;43.276;26.930;2023-05-24T01:24:31;98811.91;;;14.94;100.00
10658;BME280;5377;43.276;26.930;2023-05-24T01:27:08;98811.06;;;14.94;100.00
10658;BME280;5377;43.276;26.930;2023-05-24T01:29:37;98808.72;;;14.97;100.00
10658;BME280;5377;43.276;26.930;2023-05-24T01:32:05;98811.31;;;14.92;100.00
10658;BME280;5377;43.276;26.930;2023-05-24T01:34:32;98808.72;;;14.86;100.00
10658;BME280;5377;43.276;26.930;2023-05-24T01:36:59;98817.53;;;14.81;100.00
10658;BME280;5377;43.276;26.930;2023-05-24T01:39:28;98816.53;;;14.59;100.00
10658;BME280;5377;43.276;26.930;2023-05-24T01:42:04;98825.31;;;14.66;100.00
10658;BME280;5377;43.276;26.930;2023-05-24T01:44:38;98830.34;;;14.51;100.00
10658;BME280;5377;43.276;26.930;2023-05-24T01:47:18;98829.75;;;14.25;100.00
10658;BME280;5377;43.276;26.930;2023-05-24T01:49:49;98833.94;;;13.98;100.00
10658;BME280;5377;43.276;26.930;2023-05-24T01:52:21;98834.00;;;13.80;100.00
10658;BME280;5377;43.276;26.930;2023-05-24T01:54:51;98839.38;;;13.38;100.00
10658;BME280;5377;43.276;26.930;2023-05-24T01:57:18;98837.84;;;13.42;100.00
10658;BME280;5377;43.276;26.930;2023-05-24T01:59:48;98844.56;;;13.51;100.00
10658;BME280;5377;43.276;26.930;2023-05-24T02:02:16;98841.25;;;13.49;100.00
10658;BME280;5377;43.276;26.930;2023-05-24T02:04:43;98842.19;;;13.43;100.00
10658;BME280;5377;43.276;26.930;2023-05-24T02:07:10;98845.34;;;13.40;100.00
10658;BME280;5377;43.276;26.930;2023-05-24T02:09:37;98855.19;;;13.46;100.00
10658;BME280;5377;43.276;26.930;2023-05-24T02:12:05;98861.69;;;13.38;100.00
10658;BME280;5377;43.276;26.930;2023-05-24T02:14:32;98855.63;;;13.43;100.00
10658;BME280;5377;43.276;26.930;2023-05-24T02:17:03;98860.56;;;13.46;100.00
10658;BME280;5377;43.276;26.930;2023-05-24T02:19:31;98845.88;;;13.30;100.00
10658;BME280;5377;43.276;26.930;2023-05-24T02:21:59;98856.19;;;13.33;100.00
10658;BME280;5377;43.276;26.930;2023-05-24T02:24:25;98861.34;;;13.35;100.00
10658;BME280;5377;43.276;26.930;2023-05-24T02:26:52;98864.84;;;13.35;100.00
10658;BME280;5377;43.276;26.930;2023-05-24T02:29:20;98863.91;;;13.30;100.00
10658;BME280;5377;43.276;26.930;2023-05-24T02:31:47;98863.34;;;13.39;100.00
10658;BME280;5377;43.276;26.930;2023-05-24T02:34:17;98875.16;;;13.38;100.00
10658;BME280;5377;43.276;26.930;2023-05-24T02:36:44;98864.63;;;13.37;100.00
10658;BME280;5377;43.276;26.930;2023-05-24T02:39:11;98794.00;;;12.93;100.00
10658;BME280;5377;43.276;26.930;2023-05-24T02:41:38;98861.03;;;13.43;100.00
10658;BME280;5377;43.276;26.930;2023-05-24T02:44:05;98865.66;;;13.54;100.00
10658;BME280;5377;43.276;26.930;2023-05-24T02:46:32;98874.66;;;13.60;100.00
10658;BME280;5377;43.276;26.930;2023-05-24T02:48:59;98873.97;;;13.64;100.00
10658;BME280;5377;43.276;26.930;2023-05-24T02:51:27;98870.25;;;13.65;100.00
10658;BME280;5377;43.276;26.930;2023-05-24T02:53:54;98875.84;;;13.64;100.00
10658;BME280;5377;43.276;26.930;2023-05-24T02:56:21;98870.84;;;13.79;100.00
10658;BME280;5377;43.276;26.930;2023-05-24T02:58:47;98870.50;;;13.76;100.00
10658;BME280;5377;43.276;26.930;2023-05-24T03:01:14;98862.50;;;13.57;100.00
10658;BME280;5377;43.276;26.930;2023-05-24T03:03:41;98870.34;;;13.59;100.00
10658;BME280;5377;43.276;26.930;2023-05-24T03:06:08;98873.50;;;13.37;100.00
10658;BME280;5377;43.276;26.930;2023-05-24T03:08:36;98887.59;;;13.21;100.00
10658;BME280;5377;43.276;26.930;2023-05-24T03:11:03;98881.34;;;13.02;100.00
10658;BME280;5377;43.276;26.930;2023-05-24T03:13:30;98890.19;;;12.91;100.00
10658;BME280;5377;43.276;26.930;2023-05-24T03:15:57;98895.06;;;12.76;100.00
10658;BME280;5377;43.276;26.930;2023-05-24T03:18:24;98904.03;;;12.70;100.00
10658;BME280;5377;43.276;26.930;2023-05-24T03:20:50;98908.75;;;12.74;100.00
10658;BME280;5377;43.276;26.930;2023-05-24T03:23:18;98909.06;;;12.85;100.00
10658;BME280;5377;43.276;26.930;2023-05-24T03:25:46;98912.72;;;12.90;100.00
10658;BME280;5377;43.276;26.930;2023-05-24T03:28:13;98906.47;;;12.96;100.00
10658;BME280;5377;43.276;26.930;2023-05-24T03:30:40;98904.72;;;13.02;100.00
10658;BME280;5377;43.276;26.930;2023-05-24T03:33:07;98917.41;;;13.13;100.00
10658;BME280;5377;43.276;26.930;2023-05-24T03:35:33;98911.56;;;13.23;100.00
10658;BME280;5377;43.276;26.930;2023-05-24T03:38:00;98910.78;;;13.16;100.00
10658;BME280;5377;43.276;26.930;2023-05-24T03:40:27;98904.56;;;13.22;100.00
10658;BME280;5377;43.276;26.930;2023-05-24T03:42:58;98898.81;;;13.11;100.00
10658;BME280;5377;43.276;26.930;2023-05-24T03:45:25;98908.06;;;13.22;100.00
10658;BME280;5377;43.276;26.930;2023-05-24T03:47:51;98907.38;;;13.27;100.00
10658;BME280;5377;43.276;26.930;2023-05-24T03:50:18;98908.75;;;13.11;100.00
10658;BME280;5377;43.276;26.930;2023-05-24T03:52:45;98905.78;;;13.01;100.00
10658;BME280;5377;43.276;26.930;2023-05-24T03:55:12;98914.97;;;12.93;100.00
10658;BME280;5377;43.276;26.930;2023-05-24T03:57:39;98916.38;;;12.96;100.00
10658;BME280;5377;43.276;26.930;2023-05-24T04:00:09;98920.94;;;12.95;100.00
10658;BME280;5377;43.276;26.930;2023-05-24T04:02:36;98929.91;;;13.07;100.00
10658;BME280;5377;43.276;26.930;2023-05-24T04:05:04;98931.91;;;13.19;100.00
10658;BME280;5377;43.276;26.930;2023-05-24T04:07:34;98929.03;;;13.32;100.00
10658;BME280;5377;43.276;26.930;2023-05-24T04:10:01;98925.06;;;13.34;100.00
10658;BME280;5377;43.276;26.930;2023-05-24T04:12:29;98930.66;;;13.51;100.00
10658;BME280;5377;43.276;26.930;2023-05-24T04:14:57;98927.66;;;13.59;100.00
10658;BME280;5377;43.276;26.930;2023-05-24T04:17:25;98920.22;;;13.73;100.00
10658;BME280;5377;43.276;26.930;2023-05-24T04:19:53;98919.91;;;13.81;100.00
10658;BME280;5377;43.276;26.930;2023-05-24T04:22:20;98907.84;;;13.84;100.00
10658;BME280;5377;43.276;26.930;2023-05-24T04:24:47;98902.41;;;14.02;100.00
10658;BME280;5377;43.276;26.930;2023-05-24T04:27:14;98901.75;;;14.18;100.00
10658;BME280;5377;43.276;26.930;2023-05-24T04:29:43;98901.28;;;14.21;100.00
10658;BME280;5377;43.276;26.930;2023-05-24T04:32:14;98899.44;;;14.33;100.00
10658;BME280;5377;43.276;26.930;2023-05-24T04:34:43;98892.69;;;14.43;100.00
10658;BME280;5377;43.276;26.930;2023-05-24T04:37:10;98900.31;;;14.69;100.00
10658;BME280;5377;43.276;26.930;2023-05-24T04:39:38;98898.19;;;14.71;100.00
10658;BME280;5377;43.276;26.930;2023-05-24T04:42:06;98892.56;;;14.84;100.00
10658;BME280;5377;43.276;26.930;2023-05-24T04:44:33;98903.69;;;14.76;100.00
10658;BME280;5377;43.276;26.930;2023-05-24T04:47:00;98905.00;;;14.62;100.00
10658;BME280;5377;43.276;26.930;2023-05-24T04:49:28;98907.56;;;14.57;100.00
10658;BME280;5377;43.276;26.930;2023-05-24T04:51:56;98903.56;;;14.48;100.00
10658;BME280;5377;43.276;26.930;2023-05-24T04:54:23;98907.56;;;14.57;100.00
10658;BME280;5377;43.276;26.930;2023-05-24T04:56:50;98904.75;;;14.52;100.00
10658;BME280;5377;43.276;26.930;2023-05-24T04:59:17;98911.56;;;14.66;100.00
10658;BME280;5377;43.276;26.930;2023-05-24T05:01:43;98913.69;;;14.64;100.00
10658;BME280;5377;43.276;26.930;2023-05-24T05:04:10;98913.91;;;14.74;100.00
10658;BME280;5377;43.276;26.930;2023-05-24T05:06:37;98918.59;;;14.67;100.00
10658;BME280;5377;43.276;26.930;2023-05-24T05:09:06;98924.56;;;14.57;100.00
10658;BME280;5377;43.276;26.930;2023-05-24T05:11:35;98925.84;;;14.78;100.00
10658;BME280;5377;43.276;26.930;2023-05-24T05:14:02;98924.44;;;14.87;100.00
10658;BME280;5377;43.276;26.930;2023-05-24T05:16:29;98920.56;;;14.83;100.00
10658;BME280;5377;43.276;26.930;2023-05-24T05:18:56;98910.03;;;14.82;100.00
10658;BME280;5377;43.276;26.930;2023-05-24T05:21:23;98932.88;;;15.03;100.00
10658;BME280;5377;43.276;26.930;2023-05-24T05:23:50;98919.47;;;15.31;100.00
10658;BME280;5377;43.276;26.930;2023-05-24T05:26:18;98922.38;;;15.41;100.00
10658;BME280;5377;43.276;26.930;2023-05-24T05:28:45;98926.13;;;15.40;100.00
10658;BME280;5377;43.276;26.930;2023-05-24T05:31:12;98917.84;;;15.30;100.00
10658;BME280;5377;43.276;26.930;2023-05-24T05:33:39;98928.09;;;15.45;100.00
10658;BME280;5377;43.276;26.930;2023-05-24T05:36:06;98918.25;;;15.62;100.00
10658;BME280;5377;43.276;26.930;2023-05-24T05:38:33;98917.63;;;15.88;100.00
10658;BME280;5377;43.276;26.930;2023-05-24T05:40:59;98919.25;;;16.01;100.00
10658;BME280;5377;43.276;26.930;2023-05-24T05:43:27;98916.78;;;16.16;100.00
10658;BME280;5377;43.276;26.930;2023-05-24T05:45:54;98909.34;;;16.23;100.00
10658;BME280;5377;43.276;26.930;2023-05-24T05:48:21;98905.91;;;16.45;100.00
10658;BME280;5377;43.276;26.930;2023-05-24T05:50:48;98899.88;;;16.71;100.00
10658;BME280;5377;43.276;26.930;2023-05-24T05:53:15;98898.69;;;16.84;100.00
10658;BME280;5377;43.276;26.930;2023-05-24T05:55:42;98888.75;;;16.90;100.00
10658;BME280;5377;43.276;26.930;2023-05-24T05:58:09;98887.44;;;16.92;100.00
10658;BME280;5377;43.276;26.930;2023-05-24T06:00:39;98892.53;;;16.89;100.00
10658;BME280;5377;43.276;26.930;2023-05-24T06:03:06;98852.84;;;16.72;100.00
10658;BME280;5377;43.276;26.930;2023-05-24T06:05:32;98901.69;;;17.26;100.00
10658;BME280;5377;43.276;26.930;2023-05-24T06:07:59;98891.63;;;17.43;100.00
10658;BME280;5377;43.276;26.930;2023-05-24T06:10:26;98892.00;;;17.52;100.00
10658;BME280;5377;43.276;26.930;2023-05-24T06:12:53;98886.94;;;17.61;100.00
10658;BME280;5377;43.276;26.930;2023-05-24T06:15:20;98880.44;;;17.62;100.00
10658;BME280;5377;43.276;26.930;2023-05-24T06:17:49;98886.94;;;17.83;100.00
10658;BME280;5377;43.276;26.930;2023-05-24T06:20:17;98884.88;;;17.95;100.00
10658;BME280;5377;43.276;26.930;2023-05-24T06:22:44;98893.19;;;18.10;100.00
10658;BME280;5377;43.276;26.930;2023-05-24T06:25:13;98892.09;;;18.11;100.00
10658;BME280;5377;43.276;26.930;2023-05-24T06:27:43;98900.63;;;18.25;100.00
10658;BME280;5377;43.276;26.930;2023-05-24T06:30:10;98906.63;;;18.32;100.00
10658;BME280;5377;43.276;26.930;2023-05-24T06:32:38;98890.75;;;18.46;100.00
10658;BME280;5377;43.276;26.930;2023-05-24T06:35:07;98896.94;;;18.73;100.00
10658;BME280;5377;43.276;26.930;2023-05-24T06:37:34;98888.91;;;18.88;100.00
10658;BME280;5377;43.276;26.930;2023-05-24T06:40:04;98894.09;;;18.95;100.00
10658;BME280;5377;43.276;26.930;2023-05-24T06:42:31;98878.50;;;19.27;100.00
10658;BME280;5377;43.276;26.930;2023-05-24T06:44:58;98869.88;;;19.41;100.00
10658;BME280;5377;43.276;26.930;2023-05-24T06:47:25;98866.88;;;19.37;100.00
10658;BME280;5377;43.276;26.930;2023-05-24T06:49:52;98859.06;;;19.51;100.00
10658;BME280;5377;43.276;26.930;2023-05-24T06:52:20;98855.91;;;19.89;100.00
10658;BME280;5377;43.276;26.930;2023-05-24T06:54:47;98859.72;;;20.04;100.00
10658;BME280;5377;43.276;26.930;2023-05-24T06:57:14;98852.38;;;20.04;100.00
10658;BME280;5377;43.276;26.930;2023-05-24T06:59:41;98853.22;;;20.15;100.00
10658;BME280;5377;43.276;26.930;2023-05-24T07:02:08;98849.69;;;20.40;100.00
10658;BME280;5377;43.276;26.930;2023-05-24T07:04:35;98863.53;;;20.28;100.00
10658;BME280;5377;43.276;26.930;2023-05-24T07:07:02;98845.56;;;20.32;100.00
10658;BME280;5377;43.276;26.930;2023-05-24T07:09:30;98850.47;;;20.30;100.00
10658;BME280;5377;43.276;26.930;2023-05-24T07:11:57;98845.59;;;20.52;100.00
10658;BME280;5377;43.276;26.930;2023-05-24T07:14:24;98853.19;;;20.45;100.00
10658;BME280;5377;43.276;26.930;2023-05-24T07:16:51;98851.00;;;20.68;100.00
10658;BME280;5377;43.276;26.930;2023-05-24T07:19:21;98851.81;;;20.68;100.00
10658;BME280;5377;43.276;26.930;2023-05-24T07:21:52;98845.81;;;20.81;98.56
10658;BME280;5377;43.276;26.930;2023-05-24T07:24:19;98848.28;;;20.63;99.23
10658;BME280;5377;43.276;26.930;2023-05-24T07:26:47;98853.91;;;21.02;100.00
10658;BME280;5377;43.276;26.930;2023-05-24T07:29:14;98851.97;;;21.17;100.00
10658;BME280;5377;43.276;26.930;2023-05-24T07:31:41;98851.47;;;21.00;100.00
10658;BME280;5377;43.276;26.930;2023-05-24T07:34:08;98847.03;;;21.30;91.86
10658;BME280;5377;43.276;26.930;2023-05-24T07:36:35;98846.38;;;21.53;90.91
10658;BME280;5377;43.276;26.930;2023-05-24T07:39:02;98839.16;;;21.72;86.11
10658;BME280;5377;43.276;26.930;2023-05-24T07:41:30;98856.66;;;21.66;79.90
10658;BME280;5377;43.276;26.930;2023-05-24T07:43:59;98855.47;;;21.77;80.37
10658;BME280;5377;43.276;26.930;2023-05-24T07:46:25;98860.75;;;22.08;81.20
10658;BME280;5377;43.276;26.930;2023-05-24T07:48:52;98859.28;;;22.26;91.31
10658;BME280;5377;43.276;26.930;2023-05-24T07:51:19;98864.00;;;22.10;89.88
10658;BME280;5377;43.276;26.930;2023-05-24T07:53:46;98866.25;;;22.37;86.55
10658;BME280;5377;43.276;26.930;2023-05-24T07:56:13;98867.31;;;22.07;90.14
10658;BME280;5377;43.276;26.930;2023-05-24T07:58:40;98872.06;;;21.86;89.33
10658;BME280;5377;43.276;26.930;2023-05-24T08:01:11;98875.06;;;21.85;86.69
10658;BME280;5377;43.276;26.930;2023-05-24T08:03:38;98873.06;;;22.00;84.96
10658;BME280;5377;43.276;26.930;2023-05-24T08:06:05;98880.94;;;22.07;86.44
10658;BME280;5377;43.276;26.930;2023-05-24T08:08:32;98875.06;;;21.90;89.84
10658;BME280;5377;43.276;26.930;2023-05-24T08:10:59;98877.41;;;22.01;89.62
10658;BME280;5377;43.276;26.930;2023-05-24T08:13:26;98871.66;;;22.42;89.66
10658;BME280;5377;43.276;26.930;2023-05-24T08:15:53;98869.06;;;22.61;84.29
10658;BME280;5377;43.276;26.930;2023-05-24T08:18:21;98875.66;;;22.84;84.33
10658;BME280;5377;43.276;26.930;2023-05-24T08:20:47;98869.63;;;23.11;82.72
10658;BME280;5377;43.276;26.930;2023-05-24T08:23:15;98869.00;;;23.19;81.59
10658;BME280;5377;43.276;26.930;2023-05-24T08:25:41;98859.97;;;23.42;75.71
10658;BME280;5377;43.276;26.930;2023-05-24T08:28:08;98850.50;;;24.61;72.10
10658;BME280;5377;43.276;26.930;2023-05-24T08:30:36;98845.06;;;24.88;65.89
10658;BME280;5377;43.276;26.930;2023-05-24T08:33:03;98850.88;;;25.42;62.74
10658;BME280;5377;43.276;26.930;2023-05-24T08:35:31;98836.25;;;26.19;61.77
10658;BME280;5377;43.276;26.930;2023-05-24T08:38:00;98835.69;;;27.23;58.37
10658;BME280;5377;43.276;26.930;2023-05-24T08:40:27;98839.84;;;27.86;54.01
10658;BME280;5377;43.276;26.930;2023-05-24T08:42:54;98839.38;;;27.84;53.59
10658;BME280;5377;43.276;26.930;2023-05-24T08:45:22;98845.69;;;27.85;54.53
10658;BME280;5377;43.276;26.930;2023-05-24T08:47:51;98851.81;;;28.08;51.95
10658;BME280;5377;43.276;26.930;2023-05-24T08:50:20;98858.06;;;26.99;53.22
10658;BME280;5377;43.276;26.930;2023-05-24T08:52:50;98849.03;;;27.56;51.82
10658;BME280;5377;43.276;26.930;2023-05-24T08:55:17;98845.88;;;27.31;52.80
10658;BME280;5377;43.276;26.930;2023-05-24T08:57:45;98841.75;;;27.51;54.00
10658;BME280;5377;43.276;26.930;2023-05-24T09:00:13;98846.00;;;27.66;53.87
10658;BME280;5377;43.276;26.930;2023-05-24T09:02:41;98846.91;;;27.53;53.65
10658;BME280;5377;43.276;26.930;2023-05-24T09:05:10;98854.91;;;27.06;58.46
10658;BME280;5377;43.276;26.930;2023-05-24T09:07:39;98857.63;;;26.75;63.15
10658;BME280;5377;43.276;26.930;2023-05-24T09:10:09;98850.44;;;26.65;62.83
10658;BME280;5377;43.276;26.930;2023-05-24T09:12:38;98849.63;;;26.65;65.44
10658;BME280;5377;43.276;26.930;2023-05-24T09:15:07;98839.16;;;27.46;64.19
10658;BME280;5377;43.276;26.930;2023-05-24T09:17:34;98839.81;;;27.52;63.07
10658;BME280;5377;43.276;26.930;2023-05-24T09:20:02;98844.81;;;27.50;62.61
10658;BME280;5377;43.276;26.930;2023-05-24T09:22:31;98841.41;;;27.53;60.99
10658;BME280;5377;43.276;26.930;2023-05-24T09:25:00;98834.47;;;27.55;59.25
10658;BME280;5377;43.276;26.930;2023-05-24T09:27:31;98786.44;;;27.04;58.65
10658;BME280;5377;43.276;26.930;2023-05-24T09:29:58;98844.38;;;27.08;58.18
10658;BME280;5377;43.276;26.930;2023-05-24T09:32:26;98844.19;;;27.04;57.29
10658;BME280;5377;43.276;26.930;2023-05-24T09:34:56;98843.75;;;26.80;56.84
10658;BME280;5377;43.276;26.930;2023-05-24T09:37:24;98840.50;;;26.78;56.54
10658;BME280;5377;43.276;26.930;2023-05-24T09:39:52;98839.38;;;27.10;57.94
10658;BME280;5377;43.276;26.930;2023-05-24T09:42:21;98843.75;;;27.11;54.60
10658;BME280;5377;43.276;26.930;2023-05-24T09:44:59;98834.38;;;27.21;53.56
10658;BME280;5377;43.276;26.930;2023-05-24T09:47:28;98841.28;;;27.75;53.66
10658;BME280;5377;43.276;26.930;2023-05-24T09:49:54;98833.63;;;28.58;51.37
10658;BME280;5377;43.276;26.930;2023-05-24T09:52:21;98823.53;;;28.71;48.89
10658;BME280;5377;43.276;26.930;2023-05-24T09:54:48;98821.66;;;29.31;47.39
10658;BME280;5377;43.276;26.930;2023-05-24T09:57:15;98815.81;;;29.32;47.06
10658;BME280;5377;43.276;26.930;2023-05-24T09:59:42;98812.19;;;29.70;48.45
10658;BME280;5377;43.276;26.930;2023-05-24T10:02:11;98808.59;;;30.11;47.41
10658;BME280;5377;43.276;26.930;2023-05-24T10:04:38;98809.59;;;30.60;45.66
10658;BME280;5377;43.276;26.930;2023-05-24T10:07:05;98802.59;;;30.99;41.74
10658;BME280;5377;43.276;26.930;2023-05-24T10:09:33;98814.56;;;30.46;43.62
10658;BME280;5377;43.276;26.930;2023-05-24T10:12:01;98816.81;;;29.99;43.19
10658;BME280;5377;43.276;26.930;2023-05-24T10:14:32;98809.50;;;29.61;42.90
10658;BME280;5377;43.276;26.930;2023-05-24T10:17:00;98808.69;;;30.35;40.14
10658;BME280;5377;43.276;26.930;2023-05-24T10:19:29;98804.41;;;30.83;39.09
10658;BME280;5377;43.276;26.930;2023-05-24T10:21:57;98799.81;;;30.87;39.88
10658;BME280;5377;43.276;26.930;2023-05-24T10:24:29;98796.94;;;31.20;38.83
10658;BME280;5377;43.276;26.930;2023-05-24T10:26:59;98799.75;;;30.18;40.58
10658;BME280;5377;43.276;26.930;2023-05-24T10:29:36;98806.94;;;29.27;42.07
10658;BME280;5377;43.276;26.930;2023-05-24T10:32:07;98825.59;;;27.67;43.55
10658;BME280;5377;43.276;26.930;2023-05-24T10:34:36;98833.94;;;26.57;45.30
10658;BME280;5377;43.276;26.930;2023-05-24T10:37:04;98831.25;;;25.98;46.67
10658;BME280;5377;43.276;26.930;2023-05-24T10:39:32;98822.34;;;25.29;46.22
10658;BME280;5377;43.276;26.930;2023-05-24T10:42:01;98825.38;;;24.73;47.61
10658;BME280;5377;43.276;26.930;2023-05-24T10:44:29;98836.78;;;24.47;48.81
10658;BME280;5377;43.276;26.930;2023-05-24T10:47:19;98826.28;;;24.03;50.21
10658;BME280;5377;43.276;26.930;2023-05-24T10:49:48;98825.22;;;23.67;52.16
10658;BME280;5377;43.276;26.930;2023-05-24T10:52:17;98832.03;;;23.45;53.88
10658;BME280;5377;43.276;26.930;2023-05-24T10:55:04;98837.34;;;23.37;54.74
10658;BME280;5377;43.276;26.930;2023-05-24T10:57:32;98832.69;;;23.37;55.52
10658;BME280;5377;43.276;26.930;2023-05-24T11:02:59;98840.75;;;24.22;59.42
10658;BME280;5377;43.276;26.930;2023-05-24T11:05:33;98848.22;;;24.68;58.96
10658;BME280;5377;43.276;26.930;2023-05-24T11:08:01;98843.13;;;24.75;57.16
10658;BME280;5377;43.276;26.930;2023-05-24T11:10:31;98857.28;;;24.50;56.45
10658;BME280;5377;43.276;26.930;2023-05-24T11:12:59;98869.06;;;23.14;68.32
10658;BME280;5377;43.276;26.930;2023-05-24T11:15:26;98885.66;;;22.35;72.89
10658;BME280;5377;43.276;26.930;2023-05-24T11:18:12;98870.19;;;22.26;75.64
10658;BME280;5377;43.276;26.930;2023-05-24T11:20:42;98873.50;;;22.18;75.03
10658;BME280;5377;43.276;26.930;2023-05-24T11:23:09;98878.19;;;22.12;76.52
10658;BME280;5377;43.276;26.930;2023-05-24T11:25:37;98880.41;;;22.05;80.83
10658;BME280;5377;43.276;26.930;2023-05-24T11:28:06;98885.88;;;22.00;85.02
10658;BME280;5377;43.276;26.930;2023-05-24T11:30:38;98882.53;;;21.69;84.77
10658;BME280;5377;43.276;26.930;2023-05-24T11:33:05;98895.47;;;21.92;92.00
10658;BME280;5377;43.276;26.930;2023-05-24T11:35:38;98898.09;;;22.13;91.67
10658;BME280;5377;43.276;26.930;2023-05-24T11:38:10;98896.78;;;22.05;94.24
10658;BME280;5377;43.276;26.930;2023-05-24T11:40:39;98904.19;;;21.94;94.78
10658;BME280;5377;43.276;26.930;2023-05-24T11:43:12;98918.38;;;21.37;100.00
10658;BME280;5377;43.276;26.930;2023-05-24T11:45:41;98910.56;;;20.95;100.00
10658;BME280;5377;43.276;26.930;2023-05-24T11:48:08;98922.59;;;20.58;100.00
10658;BME280;5377;43.276;26.930;2023-05-24T11:50:39;98928.81;;;20.33;100.00
10658;BME280;5377;43.276;26.930;2023-05-24T11:53:10;98947.22;;;19.85;100.00
10658;BME280;5377;43.276;26.930;2023-05-24T11:55:37;98954.50;;;19.70;100.00
10658;BME280;5377;43.276;26.930;2023-05-24T11:58:08;98941.63;;;19.45;100.00
10658;BME280;5377;43.276;26.930;2023-05-24T12:00:37;98939.28;;;19.16;100.00
10658;BME280;5377;43.276;26.930;2023-05-24T12:03:04;98938.75;;;19.14;100.00
10658;BME280;5377;43.276;26.930;2023-05-24T12:05:33;98920.56;;;19.15;100.00
10658;BME280;5377;43.276;26.930;2023-05-24T12:08:02;98913.84;;;18.80;100.00
10658;BME280;5377;43.276;26.930;2023-05-24T12:10:32;98933.53;;;18.70;100.00
10658;BME280;5377;43.276;26.930;2023-05-24T12:13:00;98922.78;;;18.81;100.00
10658;BME280;5377;43.276;26.930;2023-05-24T12:15:28;98904.25;;;18.73;100.00
10658;BME280;5377;43.276;26.930;2023-05-24T12:17:55;98910.72;;;18.66;100.00
10658;BME280;5377;43.276;26.930;2023-05-24T12:20:22;98903.59;;;18.60;100.00
10658;BME280;5377;43.276;26.930;2023-05-24T12:22:50;98892.09;;;18.75;100.00
10658;BME280;5377;43.276;26.930;2023-05-24T12:25:17;98887.00;;;18.84;100.00
10658;BME280;5377;43.276;26.930;2023-05-24T12:27:51;98874.03;;;18.96;100.00
10658;BME280;5377;43.276;26.930;2023-05-24T12:30:21;98890.34;;;19.58;100.00
10658;BME280;5377;43.276;26.930;2023-05-24T12:32:48;98882.31;;;20.55;100.00
10658;BME280;5377;43.276;26.930;2023-05-24T12:35:16;98857.31;;;21.43;100.00
10658;BME280;5377;43.276;26.930;2023-05-24T12:37:43;98837.34;;;22.65;100.00
10658;BME280;5377;43.276;26.930;2023-05-24T12:40:14;98821.06;;;23.88;100.00
10658;BME280;5377;43.276;26.930;2023-05-24T12:42:42;98808.19;;;25.00;100.00
10658;BME280;5377;43.276;26.930;2023-05-24T12:45:12;98805.44;;;25.00;96.87
10658;BME280;5377;43.276;26.930;2023-05-24T12:47:39;98810.22;;;26.16;100.00
10658;BME280;5377;43.276;26.930;2023-05-24T12:50:07;98766.75;;;26.09;100.00
10658;BME280;5377;43.276;26.930;2023-05-24T12:52:34;98799.78;;;26.27;90.98
10658;BME280;5377;43.276;26.930;2023-05-24T12:55:01;98806.78;;;25.52;89.47
10658;BME280;5377;43.276;26.930;2023-05-24T12:57:27;98808.16;;;25.63;92.74
10658;BME280;5377;43.276;26.930;2023-05-24T12:59:55;98802.34;;;25.42;89.27
10658;BME280;5377;43.276;26.930;2023-05-24T13:02:23;98802.66;;;25.99;88.21